Main page
METAR-TAF:

METAR-TAF

Airports :

Adnan Menderes Airport

Izmir, Turkey

latitude: 38-16N, longitude: 027-09E, elevation: 125 m

Current weather observation

The report was made 48 minutes ago, at 07:20 UTC
Wind 9 kt from the North
Temperature 21°C
Humidity 64%
Pressure 1017 hPa
Visibility 10 km or more
no clouds below 1500 m and no cumulonimbus

METAR: LTBJ 150720Z 36009KT CAVOK 21/14 Q1017 NOSIG RMK RWY16 35010KT

Time: 11:08 (08:08 UTC)

Forecast

The report was made 3 hours and 28 minutes ago, at 04:40 UTC
Forecast valid from 15 at 06 UTC to 16 at 06 UTC
Wind 2 kt from variable directions
Visibility 10 km or more
no clouds below 1500 m and no cumulonimbus
Becoming
from 15 at 08 UTC to 15 at 10 UTC
Wind 12 kt from the North
Few clouds at a height of 3000 ft
Becoming
from 15 at 16 UTC to 15 at 19 UTC
Wind 2 kt from variable directions
Visibility 10 km or more
no clouds below 1500 m and no cumulonimbus

TAF: LTBJ 150440Z 1506/1606 VRB02KT CAVOK BECMG 1508/1510 35012KT FEW030 BECMG 1516/1519 VRB02KT CAVOK

Weather observations and forecasts of more than 4000 airports (METAR and TAF reports).

The available stations are represented by yellow and red dots on the map.

Hover mouse over dot to see the name of the station.

Then click to see weather observations and forecasts.

To change the map : click on the green buttons with a black cross to zoom in, on the green button with a dash to zoom out, or on the green arrows for adjacent maps.


METAR-TAF: